sensor_id;sensor_type;location;lat;lon;timestamp;temperature;humidity
53645;DHT22;39547;45.554;12.068;2023-11-21T00:02:12;8.60;90.40
53645;DHT22;39547;45.554;12.068;2023-11-21T00:08:14;8.60;90.50
53645;DHT22;39547;45.554;12.068;2023-11-21T00:14:15;8.60;89.90
53645;DHT22;39547;45.554;12.068;2023-11-21T00:20:17;8.60;90.20
53645;DHT22;39547;45.554;12.068;2023-11-21T00:26:18;8.60;90.00
53645;DHT22;39547;45.554;12.068;2023-11-21T00:32:26;8.50;90.30
53645;DHT22;39547;45.554;12.068;2023-11-21T00:38:27;8.60;90.10
53645;DHT22;39547;45.554;12.068;2023-11-21T00:44:29;8.50;89.60
53645;DHT22;39547;45.554;12.068;2023-11-21T00:50:31;8.50;90.10
53645;DHT22;39547;45.554;12.068;2023-11-21T00:56:32;8.60;90.30
53645;DHT22;39547;45.554;12.068;2023-11-21T01:02:35;8.60;90.10
53645;DHT22;39547;45.554;12.068;2023-11-21T01:08:37;8.60;90.20
53645;DHT22;39547;45.554;12.068;2023-11-21T01:14:38;8.60;90.20
53645;DHT22;39547;45.554;12.068;2023-11-21T01:20:39;8.60;90.00
53645;DHT22;39547;45.554;12.068;2023-11-21T01:26:41;8.60;89.70
53645;DHT22;39547;45.554;12.068;2023-11-21T01:32:43;8.50;89.80
53645;DHT22;39547;45.554;12.068;2023-11-21T01:38:45;8.50;89.50
53645;DHT22;39547;45.554;12.068;2023-11-21T01:44:47;8.50;90.00
53645;DHT22;39547;45.554;12.068;2023-11-21T01:50:48;8.50;90.10
53645;DHT22;39547;45.554;12.068;2023-11-21T01:56:50;8.50;89.90
53645;DHT22;39547;45.554;12.068;2023-11-21T02:02:51;8.50;90.00
53645;DHT22;39547;45.554;12.068;2023-11-21T02:08:53;8.40;89.10
53645;DHT22;39547;45.554;12.068;2023-11-21T02:14:55;8.40;89.50
53645;DHT22;39547;45.554;12.068;2023-11-21T02:20:57;8.30;89.50
53645;DHT22;39547;45.554;12.068;2023-11-21T02:26:58;8.30;89.80
53645;DHT22;39547;45.554;12.068;2023-11-21T02:33:00;8.30;89.90
53645;DHT22;39547;45.554;12.068;2023-11-21T02:39:02;8.30;90.00
53645;DHT22;39547;45.554;12.068;2023-11-21T02:45:04;8.30;89.80
53645;DHT22;39547;45.554;12.068;2023-11-21T02:51:06;8.30;90.00
53645;DHT22;39547;45.554;12.068;2023-11-21T02:57:08;8.30;89.70
53645;DHT22;39547;45.554;12.068;2023-11-21T03:03:10;8.30;90.00
53645;DHT22;39547;45.554;12.068;2023-11-21T03:09:11;8.30;90.10
53645;DHT22;39547;45.554;12.068;2023-11-21T03:15:13;8.30;90.00
53645;DHT22;39547;45.554;12.068;2023-11-21T03:21:14;8.30;90.00
53645;DHT22;39547;45.554;12.068;2023-11-21T03:27:16;8.30;90.00
53645;DHT22;39547;45.554;12.068;2023-11-21T03:33:19;8.20;89.90
53645;DHT22;39547;45.554;12.068;2023-11-21T03:39:20;8.20;89.60
53645;DHT22;39547;45.554;12.068;2023-11-21T03:45:24;8.20;89.80
53645;DHT22;39547;45.554;12.068;2023-11-21T03:51:25;8.20;89.80
53645;DHT22;39547;45.554;12.068;2023-11-21T03:57:27;8.10;90.10
53645;DHT22;39547;45.554;12.068;2023-11-21T04:03:32;8.10;89.80
53645;DHT22;39547;45.554;12.068;2023-11-21T04:09:33;8.10;89.90
53645;DHT22;39547;45.554;12.068;2023-11-21T04:15:35;8.10;89.90
53645;DHT22;39547;45.554;12.068;2023-11-21T04:21:37;8.20;90.10
53645;DHT22;39547;45.554;12.068;2023-11-21T04:27:40;8.10;90.00
53645;DHT22;39547;45.554;12.068;2023-11-21T04:33:41;8.10;90.20
53645;DHT22;39547;45.554;12.068;2023-11-21T04:39:43;8.10;90.10
53645;DHT22;39547;45.554;12.068;2023-11-21T04:45:45;8.10;90.20
53645;DHT22;39547;45.554;12.068;2023-11-21T04:51:46;8.10;90.20
53645;DHT22;39547;45.554;12.068;2023-11-21T04:57:47;8.10;90.10
53645;DHT22;39547;45.554;12.068;2023-11-21T05:03:49;8.00;90.20
53645;DHT22;39547;45.554;12.068;2023-11-21T05:09:50;8.00;90.10
53645;DHT22;39547;45.554;12.068;2023-11-21T05:15:52;7.90;89.80
53645;DHT22;39547;45.554;12.068;2023-11-21T05:21:53;7.80;89.90
53645;DHT22;39547;45.554;12.068;2023-11-21T05:27:55;7.80;90.30
53645;DHT22;39547;45.554;12.068;2023-11-21T05:33:56;7.70;90.30
53645;DHT22;39547;45.554;12.068;2023-11-21T05:39:58;7.70;90.20
53645;DHT22;39547;45.554;12.068;2023-11-21T05:45:59;7.60;89.80
53645;DHT22;39547;45.554;12.068;2023-11-21T05:52:01;7.50;89.80
53645;DHT22;39547;45.554;12.068;2023-11-21T05:58:02;7.40;89.30
53645;DHT22;39547;45.554;12.068;2023-11-21T06:04:05;7.30;89.80
53645;DHT22;39547;45.554;12.068;2023-11-21T06:10:07;7.20;89.70
53645;DHT22;39547;45.554;12.068;2023-11-21T06:16:12;7.20;89.90
53645;DHT22;39547;45.554;12.068;2023-11-21T06:22:17;7.20;90.00
53645;DHT22;39547;45.554;12.068;2023-11-21T06:28:18;7.20;89.60
53645;DHT22;39547;45.554;12.068;2023-11-21T06:34:20;7.20;89.80
53645;DHT22;39547;45.554;12.068;2023-11-21T06:40:22;7.20;90.00
53645;DHT22;39547;45.554;12.068;2023-11-21T06:46:24;7.30;90.20
53645;DHT22;39547;45.554;12.068;2023-11-21T06:52:25;7.30;90.10
53645;DHT22;39547;45.554;12.068;2023-11-21T06:58:27;7.30;90.00
53645;DHT22;39547;45.554;12.068;2023-11-21T07:04:28;7.20;89.90
53645;DHT22;39547;45.554;12.068;2023-11-21T07:10:30;7.30;90.20
53645;DHT22;39547;45.554;12.068;2023-11-21T07:16:31;7.40;90.40
53645;DHT22;39547;45.554;12.068;2023-11-21T07:22:32;7.60;90.70
53645;DHT22;39547;45.554;12.068;2023-11-21T07:28:35;7.70;90.70
53645;DHT22;39547;45.554;12.068;2023-11-21T07:34:37;7.90;90.80
53645;DHT22;39547;45.554;12.068;2023-11-21T07:40:38;8.10;90.70
53645;DHT22;39547;45.554;12.068;2023-11-21T07:46:39;8.20;90.70
53645;DHT22;39547;45.554;12.068;2023-11-21T07:52:41;8.30;90.70
53645;DHT22;39547;45.554;12.068;2023-11-21T07:58:43;8.40;89.60
53645;DHT22;39547;45.554;12.068;2023-11-21T08:04:45;8.40;90.20
53645;DHT22;39547;45.554;12.068;2023-11-21T08:10:47;8.50;90.50
53645;DHT22;39547;45.554;12.068;2023-11-21T08:16:50;8.60;90.60
53645;DHT22;39547;45.554;12.068;2023-11-21T08:22:52;8.70;90.60
53645;DHT22;39547;45.554;12.068;2023-11-21T08:28:54;8.80;90.60
53645;DHT22;39547;45.554;12.068;2023-11-21T08:34:57;8.90;90.60
53645;DHT22;39547;45.554;12.068;2023-11-21T08:40:59;9.00;90.50
53645;DHT22;39547;45.554;12.068;2023-11-21T08:47:01;9.20;90.60
53645;DHT22;39547;45.554;12.068;2023-11-21T08:53:03;9.40;90.40
53645;DHT22;39547;45.554;12.068;2023-11-21T08:59:04;9.50;90.40
53645;DHT22;39547;45.554;12.068;2023-11-21T09:05:06;9.60;90.60
53645;DHT22;39547;45.554;12.068;2023-11-21T09:11:08;9.60;90.70
53645;DHT22;39547;45.554;12.068;2023-11-21T09:17:10;9.70;90.70
53645;DHT22;39547;45.554;12.068;2023-11-21T09:23:15;9.70;90.70
53645;DHT22;39547;45.554;12.068;2023-11-21T09:29:17;9.70;90.60
53645;DHT22;39547;45.554;12.068;2023-11-21T09:35:19;9.80;90.60
53645;DHT22;39547;45.554;12.068;2023-11-21T09:41:31;9.80;90.50
53645;DHT22;39547;45.554;12.068;2023-11-21T09:47:38;9.70;90.60
53645;DHT22;39547;45.554;12.068;2023-11-21T09:53:42;9.70;90.80
53645;DHT22;39547;45.554;12.068;2023-11-21T09:59:45;9.80;90.80
53645;DHT22;39547;45.554;12.068;2023-11-21T10:05:50;9.80;90.90
53645;DHT22;39547;45.554;12.068;2023-11-21T10:11:52;9.80;90.90
53645;DHT22;39547;45.554;12.068;2023-11-21T10:17:55;9.80;91.00
53645;DHT22;39547;45.554;12.068;2023-11-21T10:23:57;9.90;91.00
53645;DHT22;39547;45.554;12.068;2023-11-21T10:30:01;9.90;91.00
53645;DHT22;39547;45.554;12.068;2023-11-21T10:36:04;9.90;91.00
53645;DHT22;39547;45.554;12.068;2023-11-21T10:42:08;10.00;91.10
53645;DHT22;39547;45.554;12.068;2023-11-21T10:48:13;10.10;91.20
53645;DHT22;39547;45.554;12.068;2023-11-21T10:54:20;10.20;91.20
53645;DHT22;39547;45.554;12.068;2023-11-21T11:00:22;10.20;91.30
53645;DHT22;39547;45.554;12.068;2023-11-21T11:06:26;10.40;91.30
53645;DHT22;39547;45.554;12.068;2023-11-21T11:12:29;10.50;91.20
53645;DHT22;39547;45.554;12.068;2023-11-21T11:18:32;10.70;91.20
53645;DHT22;39547;45.554;12.068;2023-11-21T11:37:06;11.20;91.00
53645;DHT22;39547;45.554;12.068;2023-11-21T11:43:10;11.40;90.90
53645;DHT22;39547;45.554;12.068;2023-11-21T11:49:27;11.60;90.80
53645;DHT22;39547;45.554;12.068;2023-11-21T11:55:29;11.70;90.30
53645;DHT22;39547;45.554;12.068;2023-11-21T12:01:33;11.90;90.30
53645;DHT22;39547;45.554;12.068;2023-11-21T12:07:45;12.00;90.30
53645;DHT22;39547;45.554;12.068;2023-11-21T12:13:49;12.20;90.20
53645;DHT22;39547;45.554;12.068;2023-11-21T12:20:02;12.30;89.00
53645;DHT22;39547;45.554;12.068;2023-11-21T12:26:05;12.40;89.70
53645;DHT22;39547;45.554;12.068;2023-11-21T12:32:06;12.40;89.70
53645;DHT22;39547;45.554;12.068;2023-11-21T12:38:08;12.40;89.80
53645;DHT22;39547;45.554;12.068;2023-11-21T12:44:12;12.30;90.00
53645;DHT22;39547;45.554;12.068;2023-11-21T12:50:14;12.30;90.00
53645;DHT22;39547;45.554;12.068;2023-11-21T12:56:15;12.20;89.80
53645;DHT22;39547;45.554;12.068;2023-11-21T13:02:18;12.10;90.00
53645;DHT22;39547;45.554;12.068;2023-11-21T13:08:21;12.10;90.20
53645;DHT22;39547;45.554;12.068;2023-11-21T13:14:29;12.00;90.20
53645;DHT22;39547;45.554;12.068;2023-11-21T13:20:33;12.00;90.30
53645;DHT22;39547;45.554;12.068;2023-11-21T13:26:35;12.00;90.30
53645;DHT22;39547;45.554;12.068;2023-11-21T13:32:37;12.10;90.30
53645;DHT22;39547;45.554;12.068;2023-11-21T13:38:39;12.20;90.20
53645;DHT22;39547;45.554;12.068;2023-11-21T13:44:43;12.20;90.10
53645;DHT22;39547;45.554;12.068;2023-11-21T13:50:47;12.30;89.80
53645;DHT22;39547;45.554;12.068;2023-11-21T13:57:02;12.30;89.80
53645;DHT22;39547;45.554;12.068;2023-11-21T14:03:04;12.30;89.70
53645;DHT22;39547;45.554;12.068;2023-11-21T14:09:11;12.20;89.50
53645;DHT22;39547;45.554;12.068;2023-11-21T14:15:15;12.20;89.30
53645;DHT22;39547;45.554;12.068;2023-11-21T14:21:20;12.20;89.20
53645;DHT22;39547;45.554;12.068;2023-11-21T14:27:22;12.10;89.00
53645;DHT22;39547;45.554;12.068;2023-11-21T14:33:23;12.00;89.00
53645;DHT22;39547;45.554;12.068;2023-11-21T14:39:25;12.00;88.90
53645;DHT22;39547;45.554;12.068;2023-11-21T14:45:29;12.00;88.80
53645;DHT22;39547;45.554;12.068;2023-11-21T14:51:31;11.90;88.70
53645;DHT22;39547;45.554;12.068;2023-11-21T14:57:32;11.90;88.40
53645;DHT22;39547;45.554;12.068;2023-11-21T15:03:34;11.80;88.00
53645;DHT22;39547;45.554;12.068;2023-11-21T15:09:44;11.90;88.10
53645;DHT22;39547;45.554;12.068;2023-11-21T15:15:46;11.90;88.20
53645;DHT22;39547;45.554;12.068;2023-11-21T15:21:48;11.80;88.40
53645;DHT22;39547;45.554;12.068;2023-11-21T15:27:49;11.80;88.00
53645;DHT22;39547;45.554;12.068;2023-11-21T15:33:51;11.70;88.00
53645;DHT22;39547;45.554;12.068;2023-11-21T15:39:54;11.70;88.10
53645;DHT22;39547;45.554;12.068;2023-11-21T15:45:56;11.70;88.10
53645;DHT22;39547;45.554;12.068;2023-11-21T15:51:57;11.70;88.40
53645;DHT22;39547;45.554;12.068;2023-11-21T15:58:00;11.70;88.60
53645;DHT22;39547;45.554;12.068;2023-11-21T16:04:05;11.70;88.70
53645;DHT22;39547;45.554;12.068;2023-11-21T16:10:08;11.70;89.00
53645;DHT22;39547;45.554;12.068;2023-11-21T16:16:20;11.60;89.00
53645;DHT22;39547;45.554;12.068;2023-11-21T16:22:22;11.60;89.10
53645;DHT22;39547;45.554;12.068;2023-11-21T16:28:23;11.50;89.20
53645;DHT22;39547;45.554;12.068;2023-11-21T16:34:26;11.50;89.30
53645;DHT22;39547;45.554;12.068;2023-11-21T16:40:28;11.50;89.40
53645;DHT22;39547;45.554;12.068;2023-11-21T16:46:30;11.40;89.50
53645;DHT22;39547;45.554;12.068;2023-11-21T16:52:31;11.30;89.50
53645;DHT22;39547;45.554;12.068;2023-11-21T16:58:33;11.20;89.60
53645;DHT22;39547;45.554;12.068;2023-11-21T17:04:34;11.20;89.50
53645;DHT22;39547;45.554;12.068;2023-11-21T17:10:42;11.10;89.50
53645;DHT22;39547;45.554;12.068;2023-11-21T17:16:44;11.00;89.40
53645;DHT22;39547;45.554;12.068;2023-11-21T17:22:46;10.80;89.60
53645;DHT22;39547;45.554;12.068;2023-11-21T17:28:49;10.80;89.60
53645;DHT22;39547;45.554;12.068;2023-11-21T17:34:51;10.70;89.20
53645;DHT22;39547;45.554;12.068;2023-11-21T17:40:52;10.70;89.50
53645;DHT22;39547;45.554;12.068;2023-11-21T17:46:54;10.70;89.50
53645;DHT22;39547;45.554;12.068;2023-11-21T17:52:55;10.70;89.60
53645;DHT22;39547;45.554;12.068;2023-11-21T17:58:57;10.70;89.70
53645;DHT22;39547;45.554;12.068;2023-11-21T18:04:58;10.70;89.80
53645;DHT22;39547;45.554;12.068;2023-11-21T18:11:02;10.70;89.60
53645;DHT22;39547;45.554;12.068;2023-11-21T18:17:06;10.70;89.70
53645;DHT22;39547;45.554;12.068;2023-11-21T18:23:08;10.60;88.90
53645;DHT22;39547;45.554;12.068;2023-11-21T18:29:10;10.60;89.30
53645;DHT22;39547;45.554;12.068;2023-11-21T18:35:12;10.50;89.20
53645;DHT22;39547;45.554;12.068;2023-11-21T18:41:20;10.50;89.50
53645;DHT22;39547;45.554;12.068;2023-11-21T18:47:23;10.50;89.60
53645;DHT22;39547;45.554;12.068;2023-11-21T18:53:25;10.40;89.70
53645;DHT22;39547;45.554;12.068;2023-11-21T18:59:29;10.40;89.80
53645;DHT22;39547;45.554;12.068;2023-11-21T19:05:33;10.30;89.80
53645;DHT22;39547;45.554;12.068;2023-11-21T19:11:34;10.30;89.90
53645;DHT22;39547;45.554;12.068;2023-11-21T19:17:36;10.30;90.00
53645;DHT22;39547;45.554;12.068;2023-11-21T19:23:39;10.20;89.90
53645;DHT22;39547;45.554;12.068;2023-11-21T19:29:40;10.20;90.00
53645;DHT22;39547;45.554;12.068;2023-11-21T19:35:42;10.20;90.00
53645;DHT22;39547;45.554;12.068;2023-11-21T19:41:44;10.20;90.20
53645;DHT22;39547;45.554;12.068;2023-11-21T19:47:45;10.10;90.10
53645;DHT22;39547;45.554;12.068;2023-11-21T19:53:47;10.00;90.30
53645;DHT22;39547;45.554;12.068;2023-11-21T19:59:49;10.00;90.20
53645;DHT22;39547;45.554;12.068;2023-11-21T20:05:52;9.90;90.20
53645;DHT22;39547;45.554;12.068;2023-11-21T20:11:54;9.90;90.30
53645;DHT22;39547;45.554;12.068;2023-11-21T20:17:59;9.80;89.30
53645;DHT22;39547;45.554;12.068;2023-11-21T20:24:00;9.70;89.70
53645;DHT22;39547;45.554;12.068;2023-11-21T20:30:02;9.70;90.00
53645;DHT22;39547;45.554;12.068;2023-11-21T20:36:05;9.60;89.50
53645;DHT22;39547;45.554;12.068;2023-11-21T20:42:06;9.50;89.80
53645;DHT22;39547;45.554;12.068;2023-11-21T20:48:10;9.50;88.70
53645;DHT22;39547;45.554;12.068;2023-11-21T20:54:12;9.50;89.00
53645;DHT22;39547;45.554;12.068;2023-11-21T21:00:15;9.50;89.30
53645;DHT22;39547;45.554;12.068;2023-11-21T21:06:19;9.50;89.40
53645;DHT22;39547;45.554;12.068;2023-11-21T21:12:22;9.50;89.60
53645;DHT22;39547;45.554;12.068;2023-11-21T21:18:23;9.50;89.60
53645;DHT22;39547;45.554;12.068;2023-11-21T21:24:28;9.50;89.30
53645;DHT22;39547;45.554;12.068;2023-11-21T21:30:29;9.40;89.40
53645;DHT22;39547;45.554;12.068;2023-11-21T21:36:31;9.40;88.80
53645;DHT22;39547;45.554;12.068;2023-11-21T21:42:33;9.30;89.20
53645;DHT22;39547;45.554;12.068;2023-11-21T21:48:34;9.30;89.30
53645;DHT22;39547;45.554;12.068;2023-11-21T21:54:39;9.30;89.50
53645;DHT22;39547;45.554;12.068;2023-11-21T22:00:40;9.20;89.10
53645;DHT22;39547;45.554;12.068;2023-11-21T22:06:43;9.20;88.60
53645;DHT22;39547;45.554;12.068;2023-11-21T22:12:44;9.10;88.90
53645;DHT22;39547;45.554;12.068;2023-11-21T22:18:45;9.00;88.40
53645;DHT22;39547;45.554;12.068;2023-11-21T22:24:48;9.00;88.90
53645;DHT22;39547;45.554;12.068;2023-11-21T22:30:49;9.00;89.10
53645;DHT22;39547;45.554;12.068;2023-11-21T22:36:50;9.10;89.20
53645;DHT22;39547;45.554;12.068;2023-11-21T22:42:53;9.00;88.90
53645;DHT22;39547;45.554;12.068;2023-11-21T22:48:55;9.00;89.00
53645;DHT22;39547;45.554;12.068;2023-11-21T22:54:56;8.90;89.00
53645;DHT22;39547;45.554;12.068;2023-11-21T23:00:58;8.80;88.80
53645;DHT22;39547;45.554;12.068;2023-11-21T23:06:59;8.80;89.20
53645;DHT22;39547;45.554;12.068;2023-11-21T23:13:01;8.80;89.40
53645;DHT22;39547;45.554;12.068;2023-11-21T23:19:03;8.90;89.30
53645;DHT22;39547;45.554;12.068;2023-11-21T23:25:05;8.90;89.30
53645;DHT22;39547;45.554;12.068;2023-11-21T23:31:07;8.90;89.40
53645;DHT22;39547;45.554;12.068;2023-11-21T23:37:09;8.80;89.50
53645;DHT22;39547;45.554;12.068;2023-11-21T23:43:11;8.80;89.40
53645;DHT22;39547;45.554;12.068;2023-11-21T23:49:13;8.70;89.10
53645;DHT22;39547;45.554;12.068;2023-11-21T23:55:14;8.70;89.20
